Time;durP1;ratioP1;P1;durP2;ratioP2;P2;SDS_P1;SDS_P2;PMS_P1;PMS_P2;Temp;Humidity;BMP_temperature;BMP_pressure;BME280_temperature;BME280_humidity;BME280_pressure;Samples;Min_cycle;Max_cycle;Signal;HPM_P1;HPM_P2
2021/12/15 00:00:22;;;;;;;56.47;31.17;;;;;;;;;;4968322;28;20049;-66
2021/12/15 00:02:51;;;;;;;66.05;32.05;;;;;;;;;;4964958;28;20541;-66
2021/12/15 00:05:22;;;;;;;67.10;33.60;;;;;;;;;;4969527;28;20050;-66
2021/12/15 00:07:49;;;;;;;63.33;32.22;;;;;;;;;;4969747;28;20047;-66
2021/12/15 00:10:17;;;;;;;65.82;32.13;;;;;;;;;;4961196;28;20121;-67
2021/12/15 00:12:43;;;;;;;64.10;33.00;;;;;;;;;;4970265;28;20455;-66
2021/12/15 00:15:09;;;;;;;61.03;31.17;;;;;;;;;;4973480;28;20399;-67
2021/12/15 00:17:36;;;;;;;64.97;33.38;;;;;;;;;;4973160;28;20450;-66
2021/12/15 00:20:04;;;;;;;63.53;31.83;;;;;;;;;;4969551;28;20443;-66
2021/12/15 00:22:30;;;;;;;51.55;30.55;;;;;;;;;;4971290;28;20565;-66
2021/12/15 00:24:56;;;;;;;62.65;29.98;;;;;;;;;;4969873;28;20039;-67
2021/12/15 00:27:24;;;;;;;68.72;34.35;;;;;;;;;;4956163;28;20039;-66
2021/12/15 00:29:50;;;;;;;68.07;33.72;;;;;;;;;;4969329;28;20179;-66
2021/12/15 00:32:16;;;;;;;69.35;32.22;;;;;;;;;;4967124;28;20042;-66
2021/12/15 00:34:44;;;;;;;56.97;30.27;;;;;;;;;;4971886;28;20396;-66
2021/12/15 00:37:11;;;;;;;63.17;32.67;;;;;;;;;;4965391;28;20089;-66
2021/12/15 00:39:37;;;;;;;67.03;32.47;;;;;;;;;;4962713;28;20053;-67
2021/12/15 00:42:04;;;;;;;63.67;32.15;;;;;;;;;;4967784;28;20122;-66
2021/12/15 00:44:30;;;;;;;63.63;31.85;;;;;;;;;;4972960;28;20030;-67
2021/12/15 00:46:56;;;;;;;75.57;33.25;;;;;;;;;;4969094;28;20146;-66
2021/12/15 00:49:23;;;;;;;59.47;30.35;;;;;;;;;;4970621;28;20149;-68
2021/12/15 00:51:49;;;;;;;79.60;33.63;;;;;;;;;;4966953;28;20043;-66
2021/12/15 00:54:15;;;;;;;80.57;33.95;;;;;;;;;;4964354;28;20062;-67
2021/12/15 00:56:41;;;;;;;65.25;31.83;;;;;;;;;;4960667;28;20044;-67
2021/12/15 00:59:09;;;;;;;72.55;33.15;;;;;;;;;;4954130;28;20043;-67
2021/12/15 01:01:36;;;;;;;73.00;33.97;;;;;;;;;;4967828;28;20458;-66
2021/12/15 01:04:02;;;;;;;65.38;32.75;;;;;;;;;;4969807;28;20101;-66
2021/12/15 01:06:29;;;;;;;87.38;33.78;;;;;;;;;;4958364;28;20046;-65
2021/12/15 01:08:58;;;;;;;74.07;31.80;;;;;;;;;;4967934;28;20039;-65
2021/12/15 01:19:54;;;;;;;57.07;29.23;;;;;;;;;;4969534;28;20414;-65
2021/12/15 01:22:23;;;;;;;72.38;31.35;;;;;;;;;;4962994;28;20057;-65
2021/12/15 01:24:49;;;;;;;67.43;30.30;;;;;;;;;;4970532;28;20039;-65
2021/12/15 01:27:15;;;;;;;63.80;30.17;;;;;;;;;;4968185;28;20495;-65
2021/12/15 01:29:42;;;;;;;80.78;33.63;;;;;;;;;;4969044;28;20047;-65
2021/12/15 01:32:08;;;;;;;59.15;30.08;;;;;;;;;;4964374;28;20042;-65
2021/12/15 01:34:35;;;;;;;84.68;32.85;;;;;;;;;;4966467;28;20050;-65
2021/12/15 01:37:01;;;;;;;66.78;30.02;;;;;;;;;;4969989;28;20039;-65
2021/12/15 01:39:27;;;;;;;69.40;30.17;;;;;;;;;;4966136;28;20046;-65
2021/12/15 01:41:55;;;;;;;68.97;30.67;;;;;;;;;;4961999;28;20061;-66
2021/12/15 01:47:00;;;;;;;61.88;30.13;;;;;;;;;;4966443;28;20047;-64
2021/12/15 01:49:32;;;;;;;58.67;28.27;;;;;;;;;;4969170;28;20051;-65
2021/12/15 01:52:00;;;;;;;58.78;28.17;;;;;;;;;;4974228;28;20051;-65
2021/12/15 01:54:29;;;;;;;54.10;27.70;;;;;;;;;;4972434;28;20511;-65
2021/12/15 01:56:55;;;;;;;66.57;30.42;;;;;;;;;;4967377;28;20035;-65
2021/12/15 01:59:22;;;;;;;57.38;29.17;;;;;;;;;;4974445;28;20522;-65
2021/12/15 02:01:48;;;;;;;65.15;29.15;;;;;;;;;;4974979;28;20039;-65
2021/12/15 02:04:16;;;;;;;76.88;30.77;;;;;;;;;;4974524;28;20081;-65
2021/12/15 02:06:44;;;;;;;65.63;27.85;;;;;;;;;;4971972;28;20093;-65
2021/12/15 02:09:13;;;;;;;72.47;31.17;;;;;;;;;;4974368;28;20050;-65
2021/12/15 02:11:40;;;;;;;64.22;29.67;;;;;;;;;;4971918;28;20061;-65
2021/12/15 02:14:06;;;;;;;63.53;30.38;;;;;;;;;;4971933;28;20080;-65
2021/12/15 02:16:32;;;;;;;68.70;31.33;;;;;;;;;;4956808;28;20491;-64
2021/12/15 02:18:58;;;;;;;66.18;30.50;;;;;;;;;;4973501;28;20039;-65
2021/12/15 02:21:25;;;;;;;64.53;29.58;;;;;;;;;;4973876;28;20519;-65
2021/12/15 02:23:54;;;;;;;62.33;28.50;;;;;;;;;;4974233;28;20050;-65
2021/12/15 02:26:23;;;;;;;72.90;30.95;;;;;;;;;;4973728;28;20127;-65
2021/12/15 02:28:50;;;;;;;76.38;32.70;;;;;;;;;;4967442;28;20480;-65
2021/12/15 02:31:35;;;;;;;67.18;30.30;;;;;;;;;;4956606;28;20089;-65
2021/12/15 02:34:18;;;;;;;65.70;30.88;;;;;;;;;;4972690;28;20117;-65
2021/12/15 02:39:30;;;;;;;71.72;34.22;;;;;;;;;;4972598;28;20051;-65
2021/12/15 02:41:56;;;;;;;73.53;33.50;;;;;;;;;;4956230;28;20039;-65
2021/12/15 02:44:23;;;;;;;65.82;33.08;;;;;;;;;;4972469;28;20034;-65
2021/12/15 02:46:49;;;;;;;83.68;34.92;;;;;;;;;;4970186;28;20059;-65
2021/12/15 02:49:17;;;;;;;86.53;36.17;;;;;;;;;;4955856;28;20054;-65
2021/12/15 02:51:45;;;;;;;78.38;35.05;;;;;;;;;;4972505;28;20586;-65
2021/12/15 02:54:12;;;;;;;76.05;34.03;;;;;;;;;;4971686;28;20140;-65
2021/12/15 02:56:39;;;;;;;73.47;34.45;;;;;;;;;;4974064;28;20035;-65
2021/12/15 02:59:07;;;;;;;74.60;34.83;;;;;;;;;;4969649;28;20045;-65
2021/12/15 03:01:41;;;;;;;76.72;36.13;;;;;;;;;;4958384;28;20050;-65
2021/12/15 03:07:15;;;;;;;78.38;37.20;;;;;;;;;;4960510;28;20089;-64
2021/12/15 03:17:38;;;;;;;72.45;35.67;;;;;;;;;;4971823;28;20178;-65
2021/12/15 03:20:06;;;;;;;67.50;35.47;;;;;;;;;;4971213;28;20065;-65
2021/12/15 03:22:33;;;;;;;79.47;37.42;;;;;;;;;;4971926;28;20061;-65
2021/12/15 03:24:59;;;;;;;84.95;37.45;;;;;;;;;;4956767;28;20554;-65
2021/12/15 03:33:16;;;;;;;86.65;39.97;;;;;;;;;;4971023;28;20038;-65
2021/12/15 03:36:00;;;;;;;77.93;39.45;;;;;;;;;;4969704;28;20097;-65
2021/12/15 03:38:27;;;;;;;88.53;40.58;;;;;;;;;;4962746;28;20116;-65
2021/12/15 03:40:53;;;;;;;75.95;39.33;;;;;;;;;;4968392;28;20914;-65
2021/12/15 03:43:20;;;;;;;91.47;42.28;;;;;;;;;;4963622;28;20031;-65
2021/12/15 03:45:56;;;;;;;77.45;39.40;;;;;;;;;;4969717;28;20046;-65
2021/12/15 03:48:25;;;;;;;81.50;39.45;;;;;;;;;;4955744;28;20047;-64
2021/12/15 03:50:52;;;;;;;86.88;40.97;;;;;;;;;;4972741;28;20046;-65
2021/12/15 03:53:19;;;;;;;76.82;38.30;;;;;;;;;;4972164;28;20042;-65
2021/12/15 03:55:46;;;;;;;78.20;39.47;;;;;;;;;;4972090;28;20105;-65
2021/12/15 03:58:13;;;;;;;88.18;42.05;;;;;;;;;;4953971;28;20054;-65
2021/12/15 04:00:48;;;;;;;89.78;40.85;;;;;;;;;;4952754;28;20055;-65
2021/12/15 04:03:22;;;;;;;87.38;42.63;;;;;;;;;;4966386;28;20039;-65
2021/12/15 04:05:48;;;;;;;91.32;42.33;;;;;;;;;;4969050;28;20039;-65
2021/12/15 04:08:14;;;;;;;78.35;40.78;;;;;;;;;;4971010;28;20038;-65
2021/12/15 04:10:40;;;;;;;79.43;40.92;;;;;;;;;;4971106;28;20552;-65
2021/12/15 04:13:06;;;;;;;93.93;43.20;;;;;;;;;;4971319;28;20553;-65
2021/12/15 04:15:43;;;;;;;87.43;41.92;;;;;;;;;;4971534;28;20480;-65
2021/12/15 04:18:09;;;;;;;75.78;40.97;;;;;;;;;;4966408;28;20139;-65
2021/12/15 04:20:36;;;;;;;90.22;43.83;;;;;;;;;;4971979;28;20038;-65
2021/12/15 04:23:04;;;;;;;83.45;39.97;;;;;;;;;;4971907;28;20155;-65
2021/12/15 04:25:32;;;;;;;81.93;42.28;;;;;;;;;;4955990;28;20043;-65
2021/12/15 04:28:06;;;;;;;89.15;44.95;;;;;;;;;;4972388;28;20035;-65
2021/12/15 04:30:34;;;;;;;86.35;43.35;;;;;;;;;;4962848;28;20051;-65
2021/12/15 04:33:03;;;;;;;82.28;42.63;;;;;;;;;;4972598;28;20082;-65
2021/12/15 04:35:30;;;;;;;92.95;45.05;;;;;;;;;;4971597;28;20118;-65
2021/12/15 04:37:56;;;;;;;84.93;43.85;;;;;;;;;;4971074;28;20050;-65
2021/12/15 04:40:23;;;;;;;82.57;41.58;;;;;;;;;;4963428;28;20046;-65
2021/12/15 04:42:49;;;;;;;74.15;41.22;;;;;;;;;;4964047;28;20077;-65
2021/12/15 04:45:17;;;;;;;79.90;44.92;;;;;;;;;;4970444;28;20632;-65
2021/12/15 04:47:43;;;;;;;86.70;44.90;;;;;;;;;;4970950;28;20149;-65
2021/12/15 04:50:10;;;;;;;85.15;43.85;;;;;;;;;;4971543;28;20047;-65
2021/12/15 04:52:36;;;;;;;88.15;44.92;;;;;;;;;;4971268;28;20047;-65
2021/12/15 04:55:03;;;;;;;78.93;41.92;;;;;;;;;;4971949;28;20455;-65
2021/12/15 04:57:29;;;;;;;81.93;44.35;;;;;;;;;;4971898;28;20050;-65
2021/12/15 04:59:57;;;;;;;77.40;41.97;;;;;;;;;;4972586;28;20070;-65
2021/12/15 05:02:24;;;;;;;91.57;44.53;;;;;;;;;;4971488;28;20041;-65
2021/12/15 05:04:50;;;;;;;90.70;46.00;;;;;;;;;;4972812;28;20529;-65
2021/12/15 05:07:18;;;;;;;84.63;44.47;;;;;;;;;;4969398;28;20081;-65
2021/12/15 05:09:49;;;;;;;86.45;45.00;;;;;;;;;;4965110;28;20070;-65
2021/12/15 05:12:15;;;;;;;94.88;45.45;;;;;;;;;;4967963;28;20043;-65
2021/12/15 05:14:41;;;;;;;81.78;43.33;;;;;;;;;;4967835;28;20085;-65
2021/12/15 05:17:07;;;;;;;88.43;44.10;;;;;;;;;;4964050;28;20047;-65
2021/12/15 05:19:33;;;;;;;76.72;42.53;;;;;;;;;;4968502;28;20426;-64
2021/12/15 05:21:59;;;;;;;75.80;41.90;;;;;;;;;;4964778;28;20488;-65
2021/12/15 05:26:56;;;;;;;87.70;44.08;;;;;;;;;;4970549;28;20074;-64
2021/12/15 05:29:22;;;;;;;73.72;41.15;;;;;;;;;;4968879;28;20510;-65
2021/12/15 05:31:48;;;;;;;79.03;42.42;;;;;;;;;;4967815;28;20039;-65
2021/12/15 05:34:14;;;;;;;73.90;41.55;;;;;;;;;;4970422;28;20479;-65
2021/12/15 05:36:42;;;;;;;77.88;42.03;;;;;;;;;;4970959;28;20049;-65
2021/12/15 05:39:08;;;;;;;81.45;43.70;;;;;;;;;;4970527;28;20051;-65
2021/12/15 05:41:35;;;;;;;87.05;45.38;;;;;;;;;;4969230;28;20043;-65
2021/12/15 05:44:02;;;;;;;74.40;41.55;;;;;;;;;;4945007;28;20042;-65
2021/12/15 05:46:28;;;;;;;77.85;41.15;;;;;;;;;;4965885;28;20442;-65
2021/12/15 05:48:54;;;;;;;81.30;43.03;;;;;;;;;;4967299;28;20131;-65
2021/12/15 05:51:20;;;;;;;87.55;44.33;;;;;;;;;;4951089;28;20082;-65
2021/12/15 05:53:46;;;;;;;76.70;41.70;;;;;;;;;;4952861;28;20048;-65
2021/12/15 05:56:12;;;;;;;74.80;40.42;;;;;;;;;;4959083;28;20054;-64
2021/12/15 05:58:39;;;;;;;85.85;42.13;;;;;;;;;;4970691;28;20061;-65
2021/12/15 06:01:05;;;;;;;85.60;44.63;;;;;;;;;;4968728;28;20079;-65
2021/12/15 06:03:32;;;;;;;86.30;42.30;;;;;;;;;;4979916;28;20069;-65
2021/12/15 06:05:58;;;;;;;95.70;42.92;;;;;;;;;;4966681;28;20121;-65
2021/12/15 06:08:24;;;;;;;80.88;41.58;;;;;;;;;;4968827;28;20123;-65
2021/12/15 06:10:50;;;;;;;79.40;41.03;;;;;;;;;;4970675;28;20478;-65
2021/12/15 06:13:16;;;;;;;85.97;44.60;;;;;;;;;;4967827;28;20572;-65
2021/12/15 06:15:44;;;;;;;78.40;40.55;;;;;;;;;;4957048;28;20510;-65
2021/12/15 06:18:11;;;;;;;76.18;40.13;;;;;;;;;;4968455;28;20053;-65
2021/12/15 06:20:38;;;;;;;77.70;40.65;;;;;;;;;;4969148;28;20039;-65
2021/12/15 06:23:10;;;;;;;70.10;39.35;;;;;;;;;;4966841;28;20043;-65
2021/12/15 06:25:36;;;;;;;78.63;41.13;;;;;;;;;;4957911;28;20054;-65
2021/12/15 06:28:03;;;;;;;80.05;40.53;;;;;;;;;;4967498;28;20050;-65
2021/12/15 06:30:29;;;;;;;88.85;42.40;;;;;;;;;;4956029;28;20134;-65
2021/12/15 06:32:55;;;;;;;77.80;40.97;;;;;;;;;;4970834;28;20376;-65
2021/12/15 06:35:21;;;;;;;81.13;41.60;;;;;;;;;;4972105;28;20066;-65
2021/12/15 06:37:48;;;;;;;83.75;40.30;;;;;;;;;;4970344;28;20118;-65
2021/12/15 06:40:14;;;;;;;78.70;41.40;;;;;;;;;;4970617;28;20043;-64
2021/12/15 06:42:41;;;;;;;77.70;39.95;;;;;;;;;;4968311;28;20444;-65
2021/12/15 06:45:12;;;;;;;81.22;40.17;;;;;;;;;;4968699;28;20047;-67
2021/12/15 06:58:25;;;;;;;78.97;38.63;;;;;;;;;;4970893;28;20073;-67
2021/12/15 07:00:53;;;;;;;74.25;37.53;;;;;;;;;;4970520;28;20050;-67
2021/12/15 07:03:20;;;;;;;80.55;39.28;;;;;;;;;;4972838;28;20066;-67
2021/12/15 07:05:46;;;;;;;81.07;39.60;;;;;;;;;;4966623;28;20082;-67
2021/12/15 07:08:13;;;;;;;73.47;37.65;;;;;;;;;;4960918;28;20637;-67
2021/12/15 07:10:41;;;;;;;88.72;40.10;;;;;;;;;;4970738;28;20085;-67
2021/12/15 07:13:08;;;;;;;84.60;38.88;;;;;;;;;;4970952;28;20145;-67
2021/12/15 07:15:36;;;;;;;76.72;39.00;;;;;;;;;;4970812;28;20043;-67
2021/12/15 07:18:05;;;;;;;79.32;40.00;;;;;;;;;;4971348;28;20140;-67
2021/12/15 07:20:45;;;;;;;78.47;37.97;;;;;;;;;;4969733;28;20094;-67
2021/12/15 07:23:13;;;;;;;75.05;38.58;;;;;;;;;;4971521;28;20182;-67
2021/12/15 07:25:41;;;;;;;73.65;37.67;;;;;;;;;;4970719;28;20051;-67
2021/12/15 07:28:07;;;;;;;81.07;39.28;;;;;;;;;;4964451;28;20042;-68
2021/12/15 07:30:35;;;;;;;72.72;37.15;;;;;;;;;;4970865;28;20476;-67
2021/12/15 07:33:01;;;;;;;88.57;39.85;;;;;;;;;;4968301;28;20479;-68
2021/12/15 07:35:27;;;;;;;78.63;38.53;;;;;;;;;;4970755;28;20038;-67
2021/12/15 07:37:53;;;;;;;83.15;39.33;;;;;;;;;;4969312;28;20113;-67
2021/12/15 07:40:22;;;;;;;76.80;37.10;;;;;;;;;;4970544;28;20074;-67
2021/12/15 07:43:10;;;;;;;79.32;37.92;;;;;;;;;;4966829;28;20043;-67
2021/12/15 07:48:18;;;;;;;76.82;37.35;;;;;;;;;;5126385;27;20455;-69
2021/12/15 07:50:45;;;;;;;74.22;36.55;;;;;;;;;;5124817;27;20414;-69
2021/12/15 07:53:12;;;;;;;70.93;35.33;;;;;;;;;;5104887;28;20128;-69
2021/12/15 07:55:38;;;;;;;65.18;35.25;;;;;;;;;;5102351;28;20128;-69
2021/12/15 07:58:06;;;;;;;72.68;37.20;;;;;;;;;;5108123;28;20115;-69
2021/12/15 08:00:32;;;;;;;65.35;34.58;;;;;;;;;;5108183;28;20036;-69
2021/12/15 08:02:58;;;;;;;79.57;37.67;;;;;;;;;;5108084;28;20428;-68
2021/12/15 08:05:26;;;;;;;83.95;37.42;;;;;;;;;;5106684;28;20064;-69
2021/12/15 08:07:52;;;;;;;81.10;38.50;;;;;;;;;;5088414;28;20483;-69
2021/12/15 08:10:18;;;;;;;73.85;36.67;;;;;;;;;;5108221;28;20040;-69
2021/12/15 08:12:45;;;;;;;83.90;38.47;;;;;;;;;;5107078;28;20503;-69
2021/12/15 08:15:11;;;;;;;77.47;37.00;;;;;;;;;;5110811;27;20051;-69
2021/12/15 08:17:39;;;;;;;80.40;38.40;;;;;;;;;;5107344;28;20384;-69
2021/12/15 08:20:07;;;;;;;85.28;38.95;;;;;;;;;;5105620;28;20447;-69
2021/12/15 08:22:33;;;;;;;79.80;38.90;;;;;;;;;;5141627;27;20047;-69
2021/12/15 08:24:59;;;;;;;75.82;36.65;;;;;;;;;;5106865;28;20129;-69
2021/12/15 08:27:25;;;;;;;68.30;35.78;;;;;;;;;;5140370;27;20043;-69
2021/12/15 08:29:51;;;;;;;83.85;37.97;;;;;;;;;;5086556;28;20057;-69
2021/12/15 08:32:18;;;;;;;81.20;37.40;;;;;;;;;;5103066;28;20051;-69
2021/12/15 08:34:44;;;;;;;76.50;37.40;;;;;;;;;;5140521;27;20040;-69
2021/12/15 08:37:13;;;;;;;71.15;35.78;;;;;;;;;;5105416;28;20415;-69
2021/12/15 08:39:44;;;;;;;75.40;35.10;;;;;;;;;;5104738;28;20251;-69
2021/12/15 08:42:10;;;;;;;74.32;34.75;;;;;;;;;;5105231;28;20051;-69
2021/12/15 08:44:37;;;;;;;78.80;36.65;;;;;;;;;;5107111;28;20040;-69
2021/12/15 08:47:04;;;;;;;68.55;32.72;;;;;;;;;;5106577;28;20403;-69
2021/12/15 08:49:30;;;;;;;78.47;34.97;;;;;;;;;;5097234;28;20044;-69
2021/12/15 08:51:56;;;;;;;78.00;35.78;;;;;;;;;;5100769;28;20028;-69
2021/12/15 08:54:23;;;;;;;75.97;35.92;;;;;;;;;;5089880;28;20036;-69
2021/12/15 08:56:50;;;;;;;77.50;35.17;;;;;;;;;;5096017;28;20050;-69
2021/12/15 08:59:16;;;;;;;70.95;33.45;;;;;;;;;;5089087;28;20040;-69
2021/12/15 09:01:43;;;;;;;65.32;33.25;;;;;;;;;;5087014;28;20115;-68
2021/12/15 09:04:10;;;;;;;71.43;34.35;;;;;;;;;;5081357;28;20045;-69
2021/12/15 09:06:36;;;;;;;79.78;39.33;;;;;;;;;;5086554;28;20119;-69
2021/12/15 09:09:06;;;;;;;73.72;35.65;;;;;;;;;;5091413;28;20040;-68
2021/12/15 09:11:32;;;;;;;68.40;34.90;;;;;;;;;;5092103;28;20094;-68
2021/12/15 09:14:00;;;;;;;61.65;32.38;;;;;;;;;;5088281;28;20089;-69
2021/12/15 09:16:27;;;;;;;74.10;34.90;;;;;;;;;;5088714;28;20480;-68
2021/12/15 09:18:53;;;;;;;68.68;33.42;;;;;;;;;;5089515;28;20123;-69
2021/12/15 09:21:21;;;;;;;70.63;34.13;;;;;;;;;;5087549;28;20048;-69
2021/12/15 09:23:48;;;;;;;70.03;35.53;;;;;;;;;;5076164;28;20078;-69
2021/12/15 09:26:14;;;;;;;73.35;34.80;;;;;;;;;;5075651;28;20040;-69
2021/12/15 09:28:40;;;;;;;69.65;35.33;;;;;;;;;;5090727;28;20096;-68
2021/12/15 09:31:08;;;;;;;76.22;34.85;;;;;;;;;;5093241;28;20031;-68
2021/12/15 09:33:34;;;;;;;75.72;36.13;;;;;;;;;;5092896;28;20119;-68
2021/12/15 09:36:01;;;;;;;80.93;36.63;;;;;;;;;;5092576;28;20132;-68
2021/12/15 09:38:27;;;;;;;69.18;34.15;;;;;;;;;;5089408;28;20040;-69
2021/12/15 09:40:58;;;;;;;69.55;33.20;;;;;;;;;;5093162;28;20040;-69
2021/12/15 09:43:28;;;;;;;64.43;32.60;;;;;;;;;;5092694;28;20532;-68
2021/12/15 09:46:03;;;;;;;71.35;34.45;;;;;;;;;;5091480;28;20051;-68
2021/12/15 10:02:29;;;;;;;68.60;34.53;;;;;;;;;;5086776;28;20040;-68
2021/12/15 10:18:55;;;;;;;51.72;28.30;;;;;;;;;;5085154;28;20048;-67
2021/12/15 10:21:26;;;;;;;55.78;28.38;;;;;;;;;;5086720;28;20421;-67
2021/12/15 10:23:52;;;;;;;53.40;28.85;;;;;;;;;;5091728;28;20039;-67
2021/12/15 10:26:19;;;;;;;53.67;28.45;;;;;;;;;;5091940;28;20048;-67
2021/12/15 10:28:49;;;;;;;62.17;31.00;;;;;;;;;;5091657;28;20036;-69
2021/12/15 10:31:16;;;;;;;54.70;28.00;;;;;;;;;;5083357;28;20040;-69
2021/12/15 10:33:43;;;;;;;53.15;27.70;;;;;;;;;;5091902;28;20040;-69
2021/12/15 10:36:18;;;;;;;54.78;27.75;;;;;;;;;;5086614;28;20079;-69
2021/12/15 10:38:46;;;;;;;54.65;29.02;;;;;;;;;;5085519;28;20136;-69
2021/12/15 10:41:14;;;;;;;56.63;29.88;;;;;;;;;;5091311;28;21001;-69
2021/12/15 10:43:40;;;;;;;53.70;27.85;;;;;;;;;;5091745;28;20051;-69
2021/12/15 10:46:09;;;;;;;54.03;27.67;;;;;;;;;;5091472;28;20119;-69
2021/12/15 10:48:42;;;;;;;53.75;27.15;;;;;;;;;;5091399;28;20492;-69
2021/12/15 10:51:20;;;;;;;50.63;27.40;;;;;;;;;;5084687;28;20040;-69
2021/12/15 10:53:46;;;;;;;46.42;26.65;;;;;;;;;;5077815;28;20036;-69
2021/12/15 10:56:14;;;;;;;51.35;27.05;;;;;;;;;;5091406;28;20040;-69
2021/12/15 10:58:42;;;;;;;51.28;27.52;;;;;;;;;;5087392;28;20028;-69
2021/12/15 11:01:28;;;;;;;53.13;26.67;;;;;;;;;;5087381;28;20127;-69
2021/12/15 11:03:54;;;;;;;48.40;26.17;;;;;;;;;;5090861;28;20051;-69
2021/12/15 11:06:22;;;;;;;48.92;25.75;;;;;;;;;;5091202;28;20438;-69
2021/12/15 11:08:48;;;;;;;53.35;27.15;;;;;;;;;;5083583;28;20044;-69
2021/12/15 11:11:27;;;;;;;45.42;27.05;;;;;;;;;;5091076;28;20075;-69
2021/12/15 11:13:53;;;;;;;49.95;27.25;;;;;;;;;;5091298;28;20123;-69
2021/12/15 11:16:27;;;;;;;48.17;25.55;;;;;;;;;;5091056;28;20047;-68
2021/12/15 11:18:53;;;;;;;48.20;25.83;;;;;;;;;;5090957;28;20070;-69
2021/12/15 11:21:20;;;;;;;46.22;24.95;;;;;;;;;;5090671;28;20075;-69
2021/12/15 11:23:46;;;;;;;43.60;23.27;;;;;;;;;;5090162;28;20101;-69
2021/12/15 11:26:13;;;;;;;39.03;23.85;;;;;;;;;;5090203;28;20100;-68
2021/12/15 11:28:44;;;;;;;45.42;23.70;;;;;;;;;;5090788;28;20043;-69
2021/12/15 11:31:12;;;;;;;37.72;21.50;;;;;;;;;;5090064;28;20044;-68
2021/12/15 11:33:41;;;;;;;38.63;22.17;;;;;;;;;;5085817;28;20438;-68
2021/12/15 11:36:09;;;;;;;40.72;21.75;;;;;;;;;;5090679;28;20051;-69
2021/12/15 11:38:45;;;;;;;40.53;22.20;;;;;;;;;;5073523;28;20036;-69
2021/12/15 11:41:16;;;;;;;40.30;22.30;;;;;;;;;;5073935;28;20452;-69
2021/12/15 11:43:56;;;;;;;38.30;20.73;;;;;;;;;;5090554;28;20074;-69
2021/12/15 11:46:22;;;;;;;33.97;20.15;;;;;;;;;;5082362;28;20036;-69
2021/12/15 11:48:50;;;;;;;40.60;21.52;;;;;;;;;;5086683;28;20047;-68
2021/12/15 11:51:26;;;;;;;34.90;18.60;;;;;;;;;;5090508;28;20426;-68
2021/12/15 11:53:52;;;;;;;33.90;19.77;;;;;;;;;;5089224;28;20040;-69
2021/12/15 11:56:24;;;;;;;37.70;19.35;;;;;;;;;;5086424;28;20036;-69
2021/12/15 11:58:53;;;;;;;34.90;19.05;;;;;;;;;;5089858;28;20052;-68
2021/12/15 12:01:37;;;;;;;34.08;19.40;;;;;;;;;;5090528;28;20040;-69
2021/12/15 12:04:19;;;;;;;34.95;18.05;;;;;;;;;;5076642;28;20439;-69
2021/12/15 12:06:46;;;;;;;37.15;19.60;;;;;;;;;;5091596;28;20051;-69
2021/12/15 12:09:13;;;;;;;27.50;17.20;;;;;;;;;;5089795;28;20071;-68
2021/12/15 12:11:41;;;;;;;28.83;17.15;;;;;;;;;;5090392;28;20115;-69
2021/12/15 12:14:26;;;;;;;31.30;17.98;;;;;;;;;;5087841;28;20048;-68
2021/12/15 12:16:52;;;;;;;26.00;15.50;;;;;;;;;;5083077;28;20066;-68
2021/12/15 12:19:19;;;;;;;30.50;16.00;;;;;;;;;;5089898;28;20123;-69
2021/12/15 12:21:45;;;;;;;30.67;16.45;;;;;;;;;;5090013;28;20093;-68
2021/12/15 12:24:17;;;;;;;28.58;16.20;;;;;;;;;;5089085;28;20040;-68
2021/12/15 12:26:44;;;;;;;30.65;17.40;;;;;;;;;;5090173;28;20055;-69
2021/12/15 12:29:11;;;;;;;30.20;16.02;;;;;;;;;;5089140;28;20035;-68
2021/12/15 12:31:37;;;;;;;26.20;15.55;;;;;;;;;;5088315;28;20047;-68
2021/12/15 12:34:03;;;;;;;27.55;16.42;;;;;;;;;;5074884;28;20384;-68
2021/12/15 12:36:30;;;;;;;28.70;17.00;;;;;;;;;;5077083;28;20044;-68
2021/12/15 12:38:58;;;;;;;34.83;17.40;;;;;;;;;;5093129;28;20047;-68
2021/12/15 12:41:25;;;;;;;29.75;16.65;;;;;;;;;;5093146;28;20040;-68
2021/12/15 12:43:56;;;;;;;28.27;17.30;;;;;;;;;;5093535;28;20052;-68
2021/12/15 12:46:27;;;;;;;33.05;17.65;;;;;;;;;;5093735;28;20386;-68
2021/12/15 13:00:01;;;;;;;22.60;12.82;;;;;;;;;;5088943;28;20044;-68
2021/12/15 13:02:30;;;;;;;22.38;14.18;;;;;;;;;;5076702;28;20040;-68
2021/12/15 13:04:57;;;;;;;23.55;12.68;;;;;;;;;;5093381;28;20048;-68
2021/12/15 13:07:42;;;;;;;25.08;12.20;;;;;;;;;;5092111;28;20032;-68
2021/12/15 13:10:08;;;;;;;19.90;11.70;;;;;;;;;;5092550;28;20427;-68
2021/12/15 13:12:39;;;;;;;19.70;11.15;;;;;;;;;;5085473;28;20138;-68
2021/12/15 13:15:08;;;;;;;22.95;11.95;;;;;;;;;;5092775;28;20044;-68
2021/12/15 13:17:37;;;;;;;23.05;13.02;;;;;;;;;;5090053;28;20051;-68
2021/12/15 13:20:21;;;;;;;21.55;12.10;;;;;;;;;;5086640;28;20527;-68
2021/12/15 13:23:04;;;;;;;22.15;10.30;;;;;;;;;;5085249;28;20051;-68
2021/12/15 13:31:11;;;;;;;20.70;9.55;;;;;;;;;;5082701;28;20090;-68
2021/12/15 13:33:38;;;;;;;17.45;9.60;;;;;;;;;;5090999;28;20518;-67
2021/12/15 13:36:08;;;;;;;16.10;8.80;;;;;;;;;;5092843;28;20111;-68
2021/12/15 13:38:40;;;;;;;16.23;8.48;;;;;;;;;;5091590;28;20036;-69
2021/12/15 13:41:24;;;;;;;19.52;8.50;;;;;;;;;;5092000;28;20044;-68
2021/12/15 13:43:55;;;;;;;15.73;7.75;;;;;;;;;;5093415;28;20039;-69
2021/12/15 13:46:40;;;;;;;16.88;7.70;;;;;;;;;;5080543;28;20099;-68
2021/12/15 13:49:26;;;;;;;12.95;6.75;;;;;;;;;;5092128;28;20044;-68
2021/12/15 13:52:01;;;;;;;14.23;6.60;;;;;;;;;;5092281;28;20483;-68
2021/12/15 13:54:33;;;;;;;18.35;6.88;;;;;;;;;;5093469;28;20039;-68
2021/12/15 13:57:19;;;;;;;11.00;5.95;;;;;;;;;;5092157;28;20052;-68
2021/12/15 13:59:45;;;;;;;;;;;;;;;;;;5092025;28;20081;-68
2021/12/15 14:02:26;;;;;;;8.65;3.53;;;;;;;;;;5091535;28;19916;-68
2021/12/15 14:04:52;;;;;;;7.75;3.20;;;;;;;;;;5092028;28;20039;-68
2021/12/15 14:07:37;;;;;;;13.30;3.00;;;;;;;;;;5074381;28;20044;-68
2021/12/15 14:10:12;;;;;;;4.40;1.98;;;;;;;;;;5087445;28;20040;-69
2021/12/15 14:12:48;;;;;;;5.38;1.80;;;;;;;;;;5091410;28;20044;-68
2021/12/15 14:15:15;;;;;;;5.35;1.95;;;;;;;;;;5091092;28;20050;-68
2021/12/15 14:17:41;;;;;;;5.65;1.98;;;;;;;;;;5091871;28;20052;-69
2021/12/15 14:20:11;;;;;;;9.35;1.85;;;;;;;;;;5091614;28;20040;-68
2021/12/15 14:22:38;;;;;;;8.00;1.98;;;;;;;;;;5098822;28;20485;-68
2021/12/15 14:25:04;;;;;;;3.67;1.73;;;;;;;;;;5091793;28;20036;-68
2021/12/15 14:27:30;;;;;;;3.08;1.60;;;;;;;;;;5091748;28;20851;-68
2021/12/15 14:29:56;;;;;;;2.50;1.60;;;;;;;;;;5091736;28;20126;-68
2021/12/15 14:32:25;;;;;;;6.60;1.83;;;;;;;;;;5090060;28;20044;-68
2021/12/15 14:34:53;;;;;;;3.05;1.40;;;;;;;;;;5089398;28;20040;-68
2021/12/15 14:37:20;;;;;;;7.90;1.70;;;;;;;;;;5092268;28;20048;-68
2021/12/15 14:39:48;;;;;;;4.72;1.52;;;;;;;;;;5091714;28;20399;-67
2021/12/15 14:42:34;;;;;;;3.83;1.70;;;;;;;;;;5089386;28;20564;-69
2021/12/15 14:45:01;;;;;;;6.00;1.92;;;;;;;;;;5074262;28;20071;-68
2021/12/15 14:47:29;;;;;;;5.63;1.70;;;;;;;;;;5083628;28;20056;-69
2021/12/15 14:49:56;;;;;;;6.47;1.55;;;;;;;;;;5091044;28;20097;-69
2021/12/15 14:52:25;;;;;;;5.63;2.00;;;;;;;;;;5090394;28;20040;-68
2021/12/15 14:54:53;;;;;;;8.07;1.80;;;;;;;;;;5070262;28;20036;-66
2021/12/15 14:57:21;;;;;;;6.07;1.98;;;;;;;;;;5091109;28;20044;-67
2021/12/15 14:59:54;;;;;;;4.55;1.70;;;;;;;;;;5089924;28;20062;-67
2021/12/15 15:02:20;;;;;;;5.25;1.70;;;;;;;;;;5087751;28;20519;-67
2021/12/15 15:04:47;;;;;;;5.20;1.70;;;;;;;;;;5085321;28;20044;-67
2021/12/15 15:07:16;;;;;;;5.68;1.67;;;;;;;;;;5090380;28;20040;-67
2021/12/15 15:09:47;;;;;;;6.88;1.75;;;;;;;;;;5091055;28;20047;-67
2021/12/15 15:12:18;;;;;;;5.20;1.73;;;;;;;;;;5090460;28;20043;-67
2021/12/15 15:14:50;;;;;;;6.40;1.90;;;;;;;;;;5090155;28;20072;-67
2021/12/15 15:17:29;;;;;;;3.80;1.45;;;;;;;;;;5086648;28;20115;-67
2021/12/15 15:20:00;;;;;;;7.47;1.73;;;;;;;;;;5082039;28;20043;-67
2021/12/15 15:22:32;;;;;;;3.75;1.33;;;;;;;;;;5072320;28;20055;-67
2021/12/15 15:24:58;;;;;;;3.83;1.55;;;;;;;;;;5084145;28;20380;-67
2021/12/15 15:27:25;;;;;;;5.63;1.33;;;;;;;;;;5090420;28;20044;-67
2021/12/15 15:29:55;;;;;;;6.40;1.48;;;;;;;;;;5090216;28;20127;-66
2021/12/15 15:32:29;;;;;;;2.90;1.52;;;;;;;;;;5087554;28;20088;-67
2021/12/15 15:34:56;;;;;;;6.25;1.55;;;;;;;;;;5090463;28;20051;-67
2021/12/15 15:37:24;;;;;;;4.15;1.55;;;;;;;;;;5071228;28;20549;-67
2021/12/15 15:40:04;;;;;;;6.50;1.95;;;;;;;;;;5085627;28;20515;-67
2021/12/15 15:42:31;;;;;;;3.45;1.38;;;;;;;;;;5066373;28;20048;-66
2021/12/15 15:44:57;;;;;;;7.57;1.60;;;;;;;;;;5063108;28;20437;-66
2021/12/15 15:47:23;;;;;;;5.78;1.90;;;;;;;;;;5080840;28;21224;-66
2021/12/15 15:49:57;;;;;;;7.18;1.88;;;;;;;;;;5084493;28;20040;-67
2021/12/15 15:52:23;;;;;;;5.55;1.50;;;;;;;;;;5083323;28;20072;-67
2021/12/15 15:54:49;;;;;;;4.00;1.48;;;;;;;;;;5085477;28;20040;-66
2021/12/15 15:57:16;;;;;;;5.75;1.65;;;;;;;;;;5083195;28;20493;-67
2021/12/15 15:59:43;;;;;;;4.30;1.67;;;;;;;;;;5082924;28;20091;-68